Time;durP1;ratioP1;P1;durP2;ratioP2;P2;SDS_P1;SDS_P2;PMS_P1;PMS_P2;Temp;Humidity;BMP_temperature;BMP_pressure;BME280_temperature;BME280_humidity;BME280_pressure;Samples;Min_cycle;Max_cycle;Signal;HPM_P1;HPM_P2
2021/12/29 00:00:21;;;;;;;5.50;1.37;;;8.60;82.00;;;;;;5055506;28;20419;-85
2021/12/29 00:02:47;;;;;;;5.83;1.50;;;8.60;80.20;;;;;;5054638;28;20973;-84
2021/12/29 00:05:13;;;;;;;3.13;1.20;;;8.60;80.30;;;;;;5054096;28;20629;-84
2021/12/29 00:07:39;;;;;;;2.80;1.30;;;8.60;75.00;;;;;;5053187;28;20932;-85
2021/12/29 00:10:06;;;;;;;2.03;1.20;;;8.60;76.90;;;;;;5053489;28;20425;-85
2021/12/29 00:12:39;;;;;;;4.80;1.77;;;8.70;75.80;;;;;;5054071;28;20626;-85
2021/12/29 00:15:05;;;;;;;3.70;1.27;;;8.70;78.20;;;;;;5053161;28;20425;-84
2021/12/29 00:17:30;;;;;;;1.87;1.30;;;8.70;76.00;;;;;;5053266;28;20813;-85
2021/12/29 00:19:56;;;;;;;2.03;0.83;;;8.70;82.30;;;;;;5053194;28;20427;-84
2021/12/29 00:22:22;;;;;;;0.70;0.70;;;8.70;77.30;;;;;;5053820;28;20216;-86
2021/12/29 00:24:47;;;;;;;1.87;0.87;;;8.70;79.90;;;;;;5053505;28;20175;-84
2021/12/29 00:27:13;;;;;;;3.23;1.13;;;8.70;77.70;;;;;;5053909;28;20195;-84
2021/12/29 00:29:39;;;;;;;3.67;1.40;;;8.70;78.80;;;;;;5052905;28;20184;-85
2021/12/29 00:32:05;;;;;;;9.83;0.97;;;8.70;79.20;;;;;;5053508;28;20432;-84
2021/12/29 00:34:31;;;;;;;1.50;0.73;;;8.70;77.40;;;;;;5058033;28;20411;-86
2021/12/29 00:36:57;;;;;;;1.83;0.70;;;8.70;75.40;;;;;;5056511;28;20537;-87
2021/12/29 00:39:23;;;;;;;3.57;0.73;;;8.80;74.90;;;;;;5055909;28;20179;-86
2021/12/29 00:41:48;;;;;;;0.50;0.50;;;8.70;74.30;;;;;;5054849;28;20189;-87
2021/12/29 00:44:14;;;;;;;4.10;0.90;;;8.80;74.90;;;;;;5055028;28;20182;-87
2021/12/29 00:46:40;;;;;;;2.03;0.97;;;8.80;76.20;;;;;;5055995;28;20202;-86
2021/12/29 00:49:08;;;;;;;1.57;1.00;;;8.80;75.10;;;;;;5054129;28;20540;-87
2021/12/29 00:51:34;;;;;;;3.13;1.27;;;8.80;78.40;;;;;;5053892;28;20180;-86
2021/12/29 00:54:00;;;;;;;3.03;0.70;;;8.70;74.90;;;;;;5038199;28;20434;-86
2021/12/29 00:56:26;;;;;;;1.27;0.83;;;8.80;76.80;;;;;;5053654;28;20712;-86
2021/12/29 00:58:51;;;;;;;3.10;0.80;;;8.80;78.00;;;;;;5065733;28;20411;-86
2021/12/29 01:01:17;;;;;;;2.70;0.83;;;8.70;78.40;;;;;;5054694;28;20514;-85
2021/12/29 01:03:43;;;;;;;2.60;0.93;;;8.70;78.40;;;;;;5052942;28;20218;-86
2021/12/29 01:06:09;;;;;;;5.27;1.30;;;8.70;77.40;;;;;;5052015;28;20176;-86
2021/12/29 01:08:35;;;;;;;3.60;0.60;;;8.70;78.10;;;;;;5053068;28;20278;-86
2021/12/29 01:11:02;;;;;;;1.33;0.50;;;8.70;78.20;;;;;;5053240;28;20662;-86
2021/12/29 01:13:33;;;;;;;1.33;0.80;;;8.70;77.90;;;;;;5052434;28;20191;-87
2021/12/29 01:18:31;;;;;;;2.20;1.00;;;8.70;79.00;;;;;;5054945;28;20454;-86
2021/12/29 01:20:57;;;;;;;0.83;0.60;;;8.70;77.80;;;;;;5054780;28;20434;-86
2021/12/29 01:23:24;;;;;;;0.80;0.70;;;8.70;78.60;;;;;;5055785;28;20511;-86
2021/12/29 01:25:50;;;;;;;0.57;0.47;;;8.70;77.10;;;;;;5054994;28;20192;-87
2021/12/29 01:28:15;;;;;;;3.07;0.60;;;8.70;77.20;;;;;;5054200;28;20472;-86
2021/12/29 01:30:42;;;;;;;0.97;0.70;;;8.70;77.20;;;;;;5054947;28;20176;-86
2021/12/29 01:33:08;;;;;;;3.50;0.77;;;8.70;78.50;;;;;;5055525;28;20271;-86
2021/12/29 01:35:35;;;;;;;2.00;1.00;;;8.70;76.70;;;;;;5053999;28;20449;-86
2021/12/29 01:38:02;;;;;;;1.47;0.67;;;8.80;79.00;;;;;;5055116;28;20546;-86
2021/12/29 01:40:28;;;;;;;2.30;0.77;;;8.80;80.60;;;;;;5054258;28;20461;-86
2021/12/29 01:42:55;;;;;;;0.87;0.50;;;8.70;78.10;;;;;;5052645;28;20829;-86
2021/12/29 01:45:21;;;;;;;0.60;0.37;;;8.80;76.10;;;;;;5055448;28;20478;-87
2021/12/29 01:47:48;;;;;;;1.13;0.70;;;8.80;77.20;;;;;;5055982;28;20941;-86
2021/12/29 01:50:15;;;;;;;1.60;0.90;;;8.80;79.70;;;;;;5054729;28;20415;-86
2021/12/29 01:52:42;;;;;;;2.00;0.70;;;8.80;80.90;;;;;;5055710;28;20549;-87
2021/12/29 01:55:14;;;;;;;3.03;0.50;;;8.80;79.20;;;;;;5054817;28;20422;-87
2021/12/29 01:57:41;;;;;;;3.07;0.60;;;8.70;77.20;;;;;;5054356;28;20504;-85
2021/12/29 02:00:10;;;;;;;1.23;0.60;;;8.80;78.30;;;;;;5054455;28;20968;-86
2021/12/29 02:02:36;;;;;;;4.73;0.93;;;8.80;78.80;;;;;;5054987;28;20466;-85
2021/12/29 02:05:01;;;;;;;0.50;0.40;;;8.80;78.90;;;;;;5054045;28;20418;-86
2021/12/29 02:07:28;;;;;;;2.10;0.60;;;8.80;80.80;;;;;;5055492;28;20176;-86
2021/12/29 02:09:54;;;;;;;0.83;0.73;;;8.80;77.80;;;;;;5054165;28;20176;-86
2021/12/29 02:12:20;;;;;;;0.60;0.40;;;8.80;77.20;;;;;;5053961;28;20452;-86
2021/12/29 02:14:46;;;;;;;1.87;0.90;;;8.80;77.70;;;;;;5055169;28;20208;-87
2021/12/29 02:17:13;;;;;;;2.03;1.03;;;8.80;77.80;;;;;;5054994;28;20603;-85
2021/12/29 02:19:45;;;;;;;3.27;0.73;;;8.80;78.10;;;;;;5053599;28;20781;-85
2021/12/29 02:22:25;;;;;;;0.90;0.47;;;8.90;79.20;;;;;;5051323;28;20473;-84
2021/12/29 02:24:55;;;;;;;1.27;0.40;;;8.80;77.20;;;;;;5051490;28;20414;-84
2021/12/29 02:27:21;;;;;;;0.60;0.40;;;8.80;76.10;;;;;;5050304;28;20442;-84
2021/12/29 02:29:50;;;;;;;0.70;0.40;;;8.90;76.60;;;;;;5049838;28;20425;-85
2021/12/29 02:32:16;;;;;;;0.70;0.60;;;8.80;75.50;;;;;;5049349;28;20422;-85
2021/12/29 02:34:42;;;;;;;1.27;0.50;;;8.90;74.00;;;;;;5049659;28;20419;-84
2021/12/29 02:37:08;;;;;;;1.03;0.57;;;8.80;74.10;;;;;;5049649;28;20430;-84
2021/12/29 02:39:37;;;;;;;1.17;0.60;;;8.90;76.20;;;;;;5049815;28;20210;-84
2021/12/29 02:42:06;;;;;;;0.70;0.50;;;8.80;73.20;;;;;;5049339;28;20710;-84
2021/12/29 02:44:39;;;;;;;1.13;0.60;;;8.80;72.50;;;;;;5052045;28;20442;-85
2021/12/29 02:47:06;;;;;;;0.77;0.43;;;8.90;70.80;;;;;;5053582;28;20430;-85
2021/12/29 02:49:31;;;;;;;0.67;0.50;;;8.90;71.20;;;;;;5049886;28;20424;-84
2021/12/29 02:51:57;;;;;;;1.90;0.50;;;8.90;72.60;;;;;;5050104;28;20422;-84
2021/12/29 02:54:23;;;;;;;0.77;0.60;;;8.90;76.20;;;;;;5050649;28;20187;-85
2021/12/29 02:56:54;;;;;;;0.53;0.50;;;8.90;74.20;;;;;;5051105;28;20426;-84
2021/12/29 02:59:21;;;;;;;0.60;0.53;;;8.90;74.90;;;;;;5051101;28;20188;-86
2021/12/29 03:01:47;;;;;;;0.60;0.47;;;8.90;69.30;;;;;;5054652;28;20419;-87
2021/12/29 03:04:14;;;;;;;4.63;0.87;;;9.00;74.00;;;;;;5051483;28;20456;-86
2021/12/29 03:06:40;;;;;;;0.60;0.40;;;8.90;72.80;;;;;;5051169;28;20417;-88
2021/12/29 03:09:08;;;;;;;0.50;0.40;;;8.90;69.90;;;;;;5048742;28;20402;-88
2021/12/29 03:11:36;;;;;;;4.63;0.90;;;9.00;70.40;;;;;;5049157;28;20407;-85
2021/12/29 03:14:02;;;;;;;1.10;0.43;;;9.00;69.30;;;;;;5050131;28;20437;-85
2021/12/29 03:16:28;;;;;;;0.87;0.70;;;9.00;71.20;;;;;;5050550;28;21005;-87
2021/12/29 03:18:54;;;;;;;0.80;0.67;;;9.00;69.50;;;;;;5050230;28;20507;-87
2021/12/29 03:21:20;;;;;;;1.10;0.50;;;9.00;70.40;;;;;;5053176;28;20279;-87
2021/12/29 03:23:48;;;;;;;2.30;0.70;;;9.00;69.80;;;;;;5053808;28;20470;-86
2021/12/29 03:26:14;;;;;;;0.83;0.50;;;9.00;70.50;;;;;;5054990;28;20421;-87
2021/12/29 03:28:39;;;;;;;2.13;1.07;;;9.00;68.20;;;;;;5052333;28;20508;-88
2021/12/29 03:31:10;;;;;;;1.17;0.50;;;9.10;66.20;;;;;;5052111;28;20292;-88
2021/12/29 03:33:37;;;;;;;2.20;0.40;;;9.10;69.80;;;;;;5052030;28;20187;-87
2021/12/29 03:36:04;;;;;;;0.80;0.70;;;9.10;71.10;;;;;;5051931;28;20456;-86
2021/12/29 03:38:33;;;;;;;0.67;0.60;;;9.10;71.00;;;;;;5052065;28;20931;-86
2021/12/29 03:41:00;;;;;;;0.50;0.40;;;9.10;70.10;;;;;;5052911;28;20445;-86
2021/12/29 03:43:28;;;;;;;1.10;0.43;;;9.10;70.30;;;;;;5052692;28;20492;-86
2021/12/29 03:45:54;;;;;;;0.80;0.53;;;9.10;73.60;;;;;;5052769;28;20772;-86
2021/12/29 03:48:23;;;;;;;1.17;0.50;;;9.10;70.40;;;;;;5052539;28;20848;-86
2021/12/29 03:50:49;;;;;;;1.00;0.60;;;9.10;72.00;;;;;;5053189;28;20410;-86
2021/12/29 03:53:16;;;;;;;0.50;0.40;;;9.10;71.40;;;;;;5052978;28;20419;-85
2021/12/29 03:55:44;;;;;;;1.07;0.43;;;9.10;73.70;;;;;;5051560;28;20168;-87
2021/12/29 03:58:10;;;;;;;0.53;0.43;;;9.10;70.40;;;;;;5051772;28;20771;-86
2021/12/29 04:00:36;;;;;;;0.60;0.40;;;9.10;69.60;;;;;;5051583;28;20457;-87
2021/12/29 04:03:03;;;;;;;2.10;0.50;;;9.10;72.90;;;;;;5053659;28;20465;-87
2021/12/29 04:05:29;;;;;;;0.50;0.40;;;9.10;72.60;;;;;;5053272;28;20445;-88
2021/12/29 04:07:56;;;;;;;2.30;0.50;;;9.10;72.60;;;;;;5054106;28;20403;-87
2021/12/29 04:10:22;;;;;;;0.80;0.50;;;9.10;73.90;;;;;;5053351;28;20237;-88
2021/12/29 04:12:49;;;;;;;0.40;0.30;;;9.10;74.90;;;;;;5051776;28;20411;-87
2021/12/29 04:15:16;;;;;;;0.50;0.40;;;9.00;75.40;;;;;;5052088;28;20418;-88
2021/12/29 04:17:42;;;;;;;1.07;0.97;;;9.00;76.20;;;;;;5052576;28;20426;-86
2021/12/29 04:23:00;;;;;;;0.60;0.40;;;8.90;79.70;;;;;;5054301;28;20515;-87
2021/12/29 04:25:27;;;;;;;3.63;0.60;;;8.80;80.90;;;;;;5053161;28;20421;-86
2021/12/29 04:27:57;;;;;;;0.50;0.40;;;8.80;82.30;;;;;;5052854;28;20433;-86
2021/12/29 04:30:24;;;;;;;1.23;0.90;;;8.80;84.30;;;;;;5051807;28;20422;-88
2021/12/29 04:32:52;;;;;;;0.70;0.60;;;8.70;85.30;;;;;;5051836;28;20479;-87
2021/12/29 04:35:21;;;;;;;0.83;0.50;;;8.70;86.20;;;;;;5051840;28;20418;-87
2021/12/29 04:37:48;;;;;;;0.70;0.40;;;8.70;86.50;;;;;;5053300;28;20421;-84
2021/12/29 04:40:14;;;;;;;0.50;0.30;;;8.70;86.70;;;;;;5055954;28;20513;-85
2021/12/29 04:42:39;;;;;;;0.50;0.40;;;8.60;87.40;;;;;;5054830;28;20565;-86
2021/12/29 04:45:06;;;;;;;1.37;0.60;;;8.60;88.20;;;;;;5053900;28;20172;-86
2021/12/29 04:47:31;;;;;;;1.07;0.50;;;8.60;89.00;;;;;;5053631;28;20250;-86
2021/12/29 04:50:00;;;;;;;0.60;0.40;;;8.60;90.10;;;;;;5053545;28;20418;-86
2021/12/29 04:52:28;;;;;;;0.50;0.47;;;8.60;90.10;;;;;;5053432;28;20480;-87
2021/12/29 04:54:53;;;;;;;0.70;0.53;;;8.60;90.10;;;;;;5052580;28;20510;-87
2021/12/29 04:57:19;;;;;;;1.40;0.60;;;8.60;90.10;;;;;;5052943;28;20516;-89
2021/12/29 04:59:45;;;;;;;0.60;0.40;;;8.60;90.10;;;;;;5052780;28;20199;-86
2021/12/29 05:02:11;;;;;;;0.90;0.50;;;8.60;90.10;;;;;;5052787;28;20574;-86
2021/12/29 05:04:47;;;;;;;0.47;0.40;;;8.50;90.30;;;;;;5052548;28;20403;-85
2021/12/29 05:09:59;;;;;;;1.23;0.70;;;8.50;91.20;;;;;;5054336;28;20390;-87
2021/12/29 05:12:24;;;;;;;0.73;0.63;;;8.50;91.70;;;;;;5052969;28;20752;-85
2021/12/29 05:14:50;;;;;;;1.30;0.77;;;8.50;91.90;;;;;;5052294;28;20571;-85
2021/12/29 05:17:16;;;;;;;0.93;0.70;;;8.40;91.70;;;;;;5052537;28;20176;-86
2021/12/29 05:19:41;;;;;;;0.80;0.50;;;8.40;92.30;;;;;;5052516;28;20210;-86
2021/12/29 05:22:07;;;;;;;1.20;0.70;;;8.40;92.20;;;;;;5052511;28;20215;-86
2021/12/29 05:24:33;;;;;;;1.33;0.70;;;8.40;92.30;;;;;;5052424;28;20523;-86
2021/12/29 05:26:59;;;;;;;0.87;0.50;;;8.40;92.50;;;;;;5051895;28;20179;-86
2021/12/29 05:29:26;;;;;;;0.60;0.50;;;8.50;92.90;;;;;;5051689;28;20926;-87
2021/12/29 05:31:52;;;;;;;0.83;0.70;;;8.40;93.10;;;;;;5051710;28;20705;-85
2021/12/29 05:34:17;;;;;;;5.33;0.60;;;8.40;93.10;;;;;;5055089;28;20474;-86
2021/12/29 05:36:43;;;;;;;4.47;0.80;;;8.40;93.40;;;;;;5054109;28;20186;-89
2021/12/29 05:39:09;;;;;;;0.53;0.43;;;8.40;94.00;;;;;;5052531;28;20243;-85
2021/12/29 05:41:34;;;;;;;2.50;1.00;;;8.40;93.90;;;;;;5053782;28;20520;-86
2021/12/29 05:44:00;;;;;;;0.97;0.97;;;8.40;93.80;;;;;;5052988;28;20242;-86
2021/12/29 05:46:26;;;;;;;1.43;0.70;;;8.40;93.40;;;;;;5053804;28;20179;-85
2021/12/29 05:48:52;;;;;;;1.73;0.67;;;8.40;93.10;;;;;;5053226;28;20179;-85
2021/12/29 05:51:17;;;;;;;1.27;0.70;;;8.40;93.40;;;;;;5052709;28;20411;-84
2021/12/29 05:53:43;;;;;;;1.93;0.87;;;8.40;93.20;;;;;;5053024;28;20182;-85
2021/12/29 05:56:09;;;;;;;4.40;1.00;;;8.40;92.70;;;;;;5052644;28;20240;-84
2021/12/29 05:58:37;;;;;;;2.83;0.53;;;8.40;92.60;;;;;;5052800;28;20207;-85
2021/12/29 06:01:04;;;;;;;0.80;0.50;;;8.40;92.90;;;;;;5052566;28;20419;-84
2021/12/29 06:03:29;;;;;;;1.13;0.60;;;8.40;93.20;;;;;;5052339;28;20970;-85
2021/12/29 06:05:55;;;;;;;2.77;0.97;;;8.40;93.30;;;;;;5052280;28;20407;-84
2021/12/29 06:08:21;;;;;;;0.80;0.80;;;8.40;93.30;;;;;;5051934;28;20698;-85
2021/12/29 06:10:46;;;;;;;1.33;0.97;;;8.40;93.60;;;;;;5051712;28;20820;-85
2021/12/29 06:13:13;;;;;;;1.43;1.03;;;8.40;93.40;;;;;;5050892;28;20184;-83
2021/12/29 06:15:38;;;;;;;0.60;0.60;;;8.40;93.00;;;;;;5050406;28;20182;-83
2021/12/29 06:18:04;;;;;;;0.50;0.50;;;8.40;93.50;;;;;;5050463;28;20415;-83
2021/12/29 06:20:30;;;;;;;0.70;0.70;;;8.40;93.50;;;;;;5050208;28;20230;-83
2021/12/29 06:22:56;;;;;;;4.60;2.10;;;8.40;93.20;;;;;;5050682;28;20200;-83
2021/12/29 06:25:22;;;;;;;1.20;0.70;;;8.30;93.50;;;;;;5050844;28;20625;-83
2021/12/29 06:27:48;;;;;;;2.80;0.90;;;8.40;93.00;;;;;;5051077;28;20416;-83
2021/12/29 06:30:16;;;;;;;2.03;0.67;;;8.30;93.30;;;;;;5050801;28;20962;-83
2021/12/29 06:32:43;;;;;;;2.40;1.30;;;8.40;93.40;;;;;;5051129;28;20525;-83
2021/12/29 06:35:10;;;;;;;1.50;0.80;;;8.30;93.50;;;;;;5050757;28;20410;-82
2021/12/29 06:37:36;;;;;;;2.90;1.47;;;8.30;93.70;;;;;;5051030;28;20476;-82
2021/12/29 06:40:03;;;;;;;2.50;1.70;;;8.40;93.60;;;;;;5052126;28;20467;-83
2021/12/29 06:42:29;;;;;;;3.90;1.30;;;8.40;93.20;;;;;;5052342;28;20450;-84
2021/12/29 06:44:57;;;;;;;4.83;2.40;;;8.40;92.80;;;;;;5050941;28;20415;-83
2021/12/29 06:47:23;;;;;;;2.93;2.27;;;8.40;92.30;;;;;;5051238;28;20587;-83
2021/12/29 06:49:49;;;;;;;8.83;3.10;;;8.40;92.20;;;;;;5050431;28;20406;-82
2021/12/29 06:52:14;;;;;;;4.10;3.57;;;8.40;92.30;;;;;;5050785;28;20956;-82
2021/12/29 06:54:40;;;;;;;5.30;2.77;;;8.40;92.70;;;;;;5051547;28;20238;-83
2021/12/29 06:57:06;;;;;;;2.73;1.23;;;8.40;92.20;;;;;;5054870;28;20483;-83
2021/12/29 06:59:32;;;;;;;1.83;0.90;;;8.40;91.70;;;;;;5054396;28;20176;-83
2021/12/29 07:01:58;;;;;;;3.73;1.30;;;8.40;92.10;;;;;;5054786;28;20816;-83
2021/12/29 07:04:23;;;;;;;2.40;1.10;;;8.40;92.20;;;;;;5054403;28;20172;-82
2021/12/29 07:06:50;;;;;;;1.00;0.80;;;8.40;92.20;;;;;;5054694;28;20402;-84
2021/12/29 07:09:17;;;;;;;1.50;1.13;;;8.40;92.50;;;;;;5054767;28;20179;-83
2021/12/29 07:11:42;;;;;;;5.00;1.10;;;8.40;92.60;;;;;;5054398;28;20422;-82
2021/12/29 07:14:09;;;;;;;1.80;1.70;;;8.40;92.10;;;;;;5054351;28;20418;-82
2021/12/29 07:16:37;;;;;;;1.17;0.90;;;8.50;91.90;;;;;;5054284;28;20547;-82
2021/12/29 07:19:03;;;;;;;2.93;2.00;;;8.40;92.00;;;;;;5052889;28;20430;-84
2021/12/29 07:21:29;;;;;;;2.93;1.30;;;8.40;92.30;;;;;;5054335;28;20448;-83
2021/12/29 07:23:55;;;;;;;2.67;1.17;;;8.40;93.10;;;;;;5054546;28;20453;-83
2021/12/29 07:26:22;;;;;;;0.90;0.60;;;8.40;93.10;;;;;;5054372;28;20654;-83
2021/12/29 07:28:49;;;;;;;2.40;0.77;;;8.40;93.20;;;;;;5054270;28;20203;-82
2021/12/29 07:31:15;;;;;;;1.20;1.00;;;8.40;92.80;;;;;;5053799;28;20815;-82
2021/12/29 07:33:40;;;;;;;1.30;1.07;;;8.40;92.70;;;;;;5054053;28;20803;-82
2021/12/29 07:36:06;;;;;;;2.43;1.17;;;8.30;93.40;;;;;;5053930;28;20407;-82
2021/12/29 07:38:32;;;;;;;1.13;0.97;;;8.30;93.60;;;;;;5054230;28;20255;-82
2021/12/29 07:40:57;;;;;;;1.70;1.23;;;8.40;94.10;;;;;;5053838;28;20176;-83
2021/12/29 07:43:26;;;;;;;1.90;0.83;;;8.40;94.20;;;;;;5054085;28;20458;-82
2021/12/29 07:45:54;;;;;;;2.83;1.03;;;8.40;93.30;;;;;;5053610;28;20204;-82
2021/12/29 07:48:25;;;;;;;0.60;0.60;;;8.30;93.10;;;;;;5053785;28;20453;-82
2021/12/29 07:50:51;;;;;;;2.73;0.90;;;8.30;93.30;;;;;;5053376;28;20472;-84
2021/12/29 07:53:17;;;;;;;1.90;0.70;;;8.40;93.30;;;;;;5053793;28;20418;-83
2021/12/29 07:55:42;;;;;;;1.57;0.90;;;8.30;92.10;;;;;;5053739;28;20172;-83
2021/12/29 07:58:08;;;;;;;2.33;1.00;;;8.40;92.70;;;;;;5053911;28;20179;-84
2021/12/29 08:00:34;;;;;;;4.13;1.00;;;8.30;92.70;;;;;;5053578;28;20233;-84
2021/12/29 08:02:59;;;;;;;1.40;1.10;;;8.30;93.50;;;;;;5053596;28;20257;-84
2021/12/29 08:05:25;;;;;;;1.70;1.00;;;8.40;94.30;;;;;;5053450;28;20175;-83
2021/12/29 08:07:51;;;;;;;0.73;0.60;;;8.40;94.50;;;;;;5052898;28;20180;-83
2021/12/29 08:10:17;;;;;;;3.70;0.60;;;8.40;95.40;;;;;;5053346;28;20448;-84
2021/12/29 08:12:42;;;;;;;1.20;1.03;;;8.30;95.50;;;;;;5053357;28;20417;-84
2021/12/29 08:15:08;;;;;;;1.97;1.40;;;8.30;95.70;;;;;;5053254;28;20224;-84
2021/12/29 08:17:34;;;;;;;2.10;0.90;;;8.40;96.00;;;;;;5053382;28;20187;-86
2021/12/29 08:20:02;;;;;;;2.27;1.10;;;8.40;95.60;;;;;;5052988;28;20446;-85
2021/12/29 08:22:28;;;;;;;3.53;1.40;;;8.40;95.40;;;;;;5053598;28;20519;-85
2021/12/29 08:24:54;;;;;;;1.30;1.00;;;8.40;96.00;;;;;;5054226;28;20922;-85
2021/12/29 08:27:20;;;;;;;1.70;1.13;;;8.40;96.00;;;;;;5053461;28;20450;-85
2021/12/29 08:29:45;;;;;;;1.00;0.90;;;8.40;96.00;;;;;;5052877;28;20956;-86
2021/12/29 08:32:11;;;;;;;2.63;1.20;;;8.40;96.30;;;;;;5053158;28;20186;-86
2021/12/29 08:34:37;;;;;;;1.77;0.83;;;8.50;96.40;;;;;;5053036;28;20663;-86
2021/12/29 08:37:02;;;;;;;1.90;0.80;;;8.50;95.30;;;;;;5053002;28;20172;-86
2021/12/29 08:39:28;;;;;;;0.97;0.80;;;8.50;94.30;;;;;;5052968;28;20221;-86
2021/12/29 08:41:54;;;;;;;3.20;0.90;;;8.60;94.60;;;;;;5052808;28;20180;-86
2021/12/29 08:44:19;;;;;;;2.10;0.80;;;8.60;95.00;;;;;;5054295;28;20172;-85
2021/12/29 08:46:46;;;;;;;2.10;1.00;;;8.60;95.00;;;;;;5052881;28;20264;-86
2021/12/29 08:49:14;;;;;;;2.93;0.90;;;8.60;94.60;;;;;;5052698;28;20168;-86
2021/12/29 08:51:40;;;;;;;1.43;0.90;;;8.60;94.70;;;;;;5052680;28;20426;-86
2021/12/29 08:54:06;;;;;;;1.87;0.90;;;8.60;95.30;;;;;;5052714;28;20429;-86
2021/12/29 08:56:31;;;;;;;2.40;1.33;;;8.60;95.60;;;;;;5052736;28;20505;-86
2021/12/29 08:58:57;;;;;;;1.80;1.40;;;8.70;95.40;;;;;;5053674;28;20410;-86
2021/12/29 09:01:25;;;;;;;1.50;1.17;;;8.70;95.50;;;;;;5052666;28;20318;-83
2021/12/29 09:03:52;;;;;;;2.70;1.60;;;8.70;96.10;;;;;;5052469;28;20462;-85
2021/12/29 09:06:18;;;;;;;2.37;1.20;;;8.70;95.90;;;;;;5052682;28;20403;-86
2021/12/29 09:08:45;;;;;;;3.80;2.47;;;8.70;95.90;;;;;;5053440;28;20410;-85
2021/12/29 09:11:11;;;;;;;2.53;1.57;;;8.80;95.50;;;;;;5051922;28;20787;-86
2021/12/29 09:13:37;;;;;;;2.33;1.60;;;8.80;95.10;;;;;;5052140;28;20418;-85
2021/12/29 09:16:04;;;;;;;2.57;1.10;;;8.80;95.00;;;;;;5053588;28;20425;-86
2021/12/29 09:18:32;;;;;;;1.33;1.10;;;8.80;94.40;;;;;;5052106;28;20411;-86
2021/12/29 09:21:06;;;;;;;1.50;1.40;;;8.80;94.40;;;;;;5051893;28;20434;-85
2021/12/29 09:23:32;;;;;;;6.73;1.33;;;8.80;94.60;;;;;;5051952;28;20490;-85
2021/12/29 09:25:57;;;;;;;1.40;0.93;;;8.80;94.60;;;;;;5051902;28;20403;-85
2021/12/29 09:28:24;;;;;;;3.50;1.30;;;8.80;95.10;;;;;;5051962;28;20422;-86
2021/12/29 09:30:50;;;;;;;1.40;1.30;;;8.90;95.50;;;;;;5051812;28;20168;-85
2021/12/29 09:33:19;;;;;;;1.20;1.00;;;8.90;96.10;;;;;;5053202;28;20413;-85
2021/12/29 09:35:49;;;;;;;1.50;1.40;;;8.90;96.20;;;;;;5051979;28;20934;-85
2021/12/29 09:38:17;;;;;;;1.40;1.20;;;8.90;96.50;;;;;;5051813;28;20465;-84
2021/12/29 09:40:43;;;;;;;1.57;1.10;;;9.00;96.20;;;;;;5051547;28;20419;-86
2021/12/29 09:43:09;;;;;;;1.13;1.03;;;8.90;94.70;;;;;;5051533;28;20488;-85
2021/12/29 09:45:37;;;;;;;3.23;1.07;;;9.00;95.30;;;;;;5051626;28;20464;-85
2021/12/29 09:48:04;;;;;;;0.60;0.60;;;9.00;95.80;;;;;;5052972;28;20505;-85
2021/12/29 09:50:30;;;;;;;0.73;0.70;;;9.00;95.50;;;;;;5052644;28;20929;-86
2021/12/29 09:52:59;;;;;;;1.67;1.03;;;9.00;95.40;;;;;;5051515;28;20786;-85
2021/12/29 09:55:26;;;;;;;1.37;1.17;;;9.00;95.70;;;;;;5051273;28;20422;-85
2021/12/29 09:57:56;;;;;;;1.93;1.13;;;9.10;96.20;;;;;;5051483;28;20415;-85
2021/12/29 10:00:24;;;;;;;2.90;1.63;;;9.10;96.10;;;;;;5050873;28;20419;-85
2021/12/29 10:02:50;;;;;;;1.37;1.10;;;9.10;95.70;;;;;;5051362;28;20978;-86
2021/12/29 10:05:16;;;;;;;1.57;1.47;;;9.10;95.30;;;;;;5051134;28;20417;-85
2021/12/29 10:07:42;;;;;;;1.10;1.00;;;9.10;95.40;;;;;;5051258;28;20207;-87
2021/12/29 10:10:17;;;;;;;2.47;1.40;;;9.20;95.30;;;;;;5046488;28;20414;-85
2021/12/29 10:12:44;;;;;;;1.30;1.20;;;9.20;94.60;;;;;;5060665;28;20449;-86
2021/12/29 10:15:10;;;;;;;3.53;1.43;;;9.20;94.60;;;;;;5066482;28;20422;-85
2021/12/29 10:17:36;;;;;;;2.20;1.37;;;9.20;94.60;;;;;;5066831;28;21002;-85
2021/12/29 10:20:08;;;;;;;1.80;1.70;;;9.20;95.30;;;;;;5066021;28;20510;-85
2021/12/29 10:22:34;;;;;;;5.73;1.63;;;9.20;92.50;;;;;;5029621;28;20209;-85
2021/12/29 10:25:08;;;;;;;2.10;1.20;;;9.10;91.80;;;;;;5030423;28;20404;-83
2021/12/29 10:27:35;;;;;;;1.27;0.80;;;9.20;93.10;;;;;;5029944;28;20773;-85
2021/12/29 10:30:21;;;;;;;2.73;1.43;;;9.20;93.20;;;;;;5029007;28;20849;-84
2021/12/29 10:32:47;;;;;;;1.63;1.53;;;9.30;93.00;;;;;;5029606;28;20481;-84
2021/12/29 10:35:28;;;;;;;3.60;1.17;;;9.30;92.60;;;;;;5030971;28;20946;-85
2021/12/29 10:38:07;;;;;;;1.87;1.20;;;9.30;91.50;;;;;;5029534;28;20824;-85
2021/12/29 10:40:34;;;;;;;3.13;1.17;;;9.30;92.00;;;;;;5029491;28;20420;-85
2021/12/29 10:43:01;;;;;;;2.83;1.40;;;9.30;92.20;;;;;;5029681;28;20455;-86
2021/12/29 10:45:52;;;;;;;4.00;1.60;;;9.30;91.30;;;;;;5029919;28;20420;-85
2021/12/29 10:48:17;;;;;;;1.60;1.50;;;9.30;91.00;;;;;;5030796;28;20415;-85
2021/12/29 10:51:03;;;;;;;2.53;2.33;;;9.30;91.30;;;;;;5030304;28;20403;-85
2021/12/29 10:53:31;;;;;;;2.40;2.20;;;9.30;91.20;;;;;;5030748;28;20188;-85
2021/12/29 10:55:57;;;;;;;3.20;2.40;;;9.40;91.60;;;;;;5030283;28;20411;-85
2021/12/29 10:58:25;;;;;;;2.80;2.20;;;9.30;90.00;;;;;;5030129;28;20431;-84
2021/12/29 11:01:05;;;;;;;2.60;1.20;;;9.40;90.40;;;;;;5029696;28;20422;-84
2021/12/29 11:03:33;;;;;;;1.10;1.00;;;9.40;87.30;;;;;;5029923;28;20889;-86
2021/12/29 11:06:01;;;;;;;1.50;1.37;;;9.40;88.20;;;;;;5030135;28;20412;-85
2021/12/29 11:08:45;;;;;;;2.90;1.10;;;9.40;88.60;;;;;;5029888;28;20430;-84
2021/12/29 11:11:11;;;;;;;4.80;1.17;;;9.40;90.00;;;;;;5029597;28;20455;-86
2021/12/29 11:13:38;;;;;;;1.30;1.20;;;9.40;90.10;;;;;;5029970;28;20447;-86
2021/12/29 11:16:05;;;;;;;1.57;1.20;;;9.40;90.40;;;;;;5029889;28;20183;-85
2021/12/29 11:18:51;;;;;;;1.83;0.90;;;9.40;90.10;;;;;;5029395;28;20473;-84
2021/12/29 11:21:30;;;;;;;2.30;1.20;;;9.40;88.20;;;;;;5029790;28;20435;-84
2021/12/29 11:23:56;;;;;;;2.27;1.07;;;9.50;89.10;;;;;;5030081;28;20494;-86
2021/12/29 11:26:33;;;;;;;4.97;1.43;;;9.50;90.80;;;;;;5030035;28;20466;-84
2021/12/29 11:29:06;;;;;;;1.53;1.30;;;9.50;89.90;;;;;;5029705;28;20419;-84
2021/12/29 11:31:38;;;;;;;2.13;1.70;;;9.50;90.90;;;;;;5048289;28;20406;-85
2021/12/29 11:34:16;;;;;;;2.23;1.30;;;9.50;91.20;;;;;;5066470;28;20418;-85
2021/12/29 11:36:42;;;;;;;4.40;1.53;;;9.50;91.00;;;;;;5065971;28;20419;-85
2021/12/29 11:39:08;;;;;;;3.50;1.63;;;9.60;90.80;;;;;;5065863;28;20411;-85
2021/12/29 11:41:34;;;;;;;5.10;2.27;;;9.60;89.50;;;;;;5066549;28;20947;-85
2021/12/29 11:44:00;;;;;;;1.63;1.50;;;9.60;78.90;;;;;;5054175;28;20541;-85
2021/12/29 11:46:26;;;;;;;1.33;1.00;;;9.60;80.20;;;;;;5069486;28;20179;-84
2021/12/29 11:48:52;;;;;;;1.60;1.40;;;9.60;81.30;;;;;;5069653;28;20880;-85
2021/12/29 11:51:36;;;;;;;3.23;2.33;;;9.60;83.30;;;;;;5069407;28;20225;-85
2021/12/29 11:54:17;;;;;;;1.73;1.40;;;9.70;81.10;;;;;;5068926;28;20422;-85
2021/12/29 11:56:43;;;;;;;1.50;1.30;;;9.60;82.90;;;;;;5069829;28;20422;-85
2021/12/29 11:59:09;;;;;;;4.43;1.70;;;9.70;87.70;;;;;;5069976;28;20430;-85
2021/12/29 12:01:36;;;;;;;2.97;1.40;;;9.70;87.20;;;;;;5070369;28;20414;-85
2021/12/29 12:04:04;;;;;;;1.53;1.00;;;9.60;85.90;;;;;;5070469;28;20465;-85
2021/12/29 12:06:41;;;;;;;3.10;0.80;;;9.60;83.40;;;;;;5069979;28;20407;-86
2021/12/29 12:09:16;;;;;;;1.60;1.13;;;9.60;84.30;;;;;;5069081;28;20426;-85
2021/12/29 12:12:02;;;;;;;1.57;1.17;;;9.70;87.00;;;;;;5068702;28;20421;-85
2021/12/29 12:14:32;;;;;;;2.07;1.03;;;9.70;79.90;;;;;;5070159;28;20418;-84
2021/12/29 12:17:10;;;;;;;2.20;0.93;;;9.70;78.20;;;;;;5069839;28;20529;-85
2021/12/29 12:19:36;;;;;;;1.83;0.80;;;9.80;81.90;;;;;;5069978;28;20410;-85
2021/12/29 12:22:05;;;;;;;3.00;1.10;;;9.80;81.30;;;;;;5069780;28;20457;-85
2021/12/29 12:24:31;;;;;;;1.77;1.30;;;9.80;79.40;;;;;;5070081;28;20179;-84
2021/12/29 12:27:03;;;;;;;1.30;0.80;;;9.80;79.90;;;;;;5069828;28;20422;-84
2021/12/29 12:29:35;;;;;;;1.70;1.33;;;9.70;81.80;;;;;;5069831;28;21018;-84
2021/12/29 12:32:04;;;;;;;2.40;1.70;;;9.70;80.00;;;;;;5069522;28;20429;-84
2021/12/29 12:34:30;;;;;;;4.80;1.73;;;9.80;80.00;;;;;;5069829;28;20422;-87
2021/12/29 12:36:56;;;;;;;4.17;2.10;;;9.80;81.90;;;;;;5069914;28;20941;-88
2021/12/29 12:39:22;;;;;;;2.83;1.80;;;9.80;81.60;;;;;;5053819;28;20419;-85
2021/12/29 12:41:50;;;;;;;3.90;1.83;;;9.80;77.50;;;;;;5055194;28;20172;-84
2021/12/29 12:44:19;;;;;;;1.47;1.07;;;9.90;75.40;;;;;;5054509;28;20450;-85
2021/12/29 12:46:47;;;;;;;4.00;1.33;;;9.90;76.50;;;;;;5052956;28;21000;-85
2021/12/29 12:49:26;;;;;;;2.83;1.23;;;10.00;74.20;;;;;;5052832;28;20978;-85
2021/12/29 12:52:03;;;;;;;3.27;1.43;;;10.00;78.90;;;;;;5052664;28;20417;-85
2021/12/29 12:54:35;;;;;;;7.10;1.93;;;10.10;78.80;;;;;;5052278;28;20422;-86
2021/12/29 12:57:05;;;;;;;3.47;1.60;;;10.10;79.30;;;;;;5052802;28;20460;-86
2021/12/29 12:59:43;;;;;;;2.83;1.90;;;10.10;80.80;;;;;;5052591;28;20419;-85
2021/12/29 13:02:24;;;;;;;5.37;2.13;;;10.10;81.70;;;;;;5052382;28;20938;-85
2021/12/29 13:05:16;;;;;;;2.53;1.90;;;10.30;74.00;;;;;;5053025;28;20800;-86
2021/12/29 13:07:44;;;;;;;7.87;2.40;;;10.20;75.10;;;;;;5052690;28;20417;-86